Time;durP1;ratioP1;P1;durP2;ratioP2;P2;SDS_P1;SDS_P2;PMS_P1;PMS_P2;Temp;Humidity;BMP_temperature;BMP_pressure;BME280_temperature;BME280_humidity;BME280_pressure;Samples;Min_cycle;Max_cycle;Signal;HPM_P1;HPM_P2
2022/11/23 00:01:15;;;;;;;3.90;2.57;;;6.90;99.90;;;;;;5015762;28;20403;-75
2022/11/23 00:03:41;;;;;;;4.57;3.00;;;6.90;99.90;;;;;;5015771;28;20184;-74
2022/11/23 00:06:07;;;;;;;3.97;2.77;;;6.80;99.90;;;;;;5015394;28;20937;-74
2022/11/23 00:08:33;;;;;;;2.97;2.33;;;6.90;99.90;;;;;;5015494;28;20435;-74
2022/11/23 00:10:59;;;;;;;6.90;3.00;;;6.80;99.90;;;;;;5015622;28;20774;-74
2022/11/23 00:13:25;;;;;;;8.23;3.47;;;6.80;99.90;;;;;;5015105;28;20192;-75
2022/11/23 00:15:51;;;;;;;5.57;2.93;;;6.70;99.90;;;;;;5015215;28;20485;-74
2022/11/23 00:18:17;;;;;;;4.63;3.00;;;6.70;99.90;;;;;;5014696;28;20450;-74
2022/11/23 00:20:42;;;;;;;3.43;2.60;;;6.70;99.90;;;;;;5015279;28;20175;-74
2022/11/23 00:23:08;;;;;;;5.90;3.17;;;6.70;99.90;;;;;;5014950;28;20192;-74
2022/11/23 00:25:34;;;;;;;4.40;2.47;;;6.80;99.90;;;;;;5015232;28;20671;-74
2022/11/23 00:28:00;;;;;;;6.50;3.33;;;6.70;99.90;;;;;;5015741;28;20412;-74
2022/11/23 00:30:25;;;;;;;5.47;2.63;;;6.70;99.90;;;;;;5015447;28;20539;-73
2022/11/23 00:32:51;;;;;;;5.90;2.90;;;6.80;99.90;;;;;;5014699;28;20268;-74
2022/11/23 00:35:16;;;;;;;5.07;2.63;;;6.90;99.90;;;;;;5014897;28;20230;-73
2022/11/23 00:37:42;;;;;;;4.60;2.50;;;6.90;99.90;;;;;;5014696;28;20188;-73
2022/11/23 00:40:08;;;;;;;3.97;3.00;;;6.90;99.90;;;;;;5013669;28;20164;-74
2022/11/23 00:42:34;;;;;;;3.67;2.20;;;6.80;99.90;;;;;;5015130;28;20199;-73
2022/11/23 00:44:59;;;;;;;6.43;2.73;;;6.80;99.90;;;;;;5014882;28;20911;-73
2022/11/23 00:47:25;;;;;;;3.60;2.57;;;6.90;99.90;;;;;;5013245;28;20180;-73
2022/11/23 00:49:50;;;;;;;3.63;2.60;;;7.00;99.90;;;;;;5014961;28;20169;-74
2022/11/23 00:52:16;;;;;;;3.23;1.87;;;7.10;99.90;;;;;;5013306;28;20200;-74
2022/11/23 00:54:41;;;;;;;5.20;2.27;;;7.10;99.90;;;;;;5018800;28;20215;-74
2022/11/23 00:57:07;;;;;;;2.57;1.87;;;7.20;99.90;;;;;;5013382;28;20764;-74
2022/11/23 00:59:32;;;;;;;5.30;2.60;;;7.30;99.90;;;;;;5014585;28;20567;-74
2022/11/23 01:01:58;;;;;;;2.93;2.30;;;7.40;99.90;;;;;;5014673;28;20232;-75
2022/11/23 01:04:24;;;;;;;3.57;2.47;;;7.30;99.90;;;;;;5014034;28;20200;-73
2022/11/23 01:06:55;;;;;;;8.33;2.87;;;7.40;99.90;;;;;;5013808;28;20185;-74
2022/11/23 01:09:25;;;;;;;4.90;2.13;;;7.50;99.90;;;;;;5014605;28;20435;-74
2022/11/23 01:11:53;;;;;;;3.87;1.83;;;7.50;99.90;;;;;;5013086;28;20447;-74
2022/11/23 01:14:20;;;;;;;2.00;1.67;;;7.50;99.90;;;;;;5014522;28;20412;-75
2022/11/23 01:16:46;;;;;;;4.50;2.07;;;7.40;99.90;;;;;;5013076;28;20461;-74
2022/11/23 01:19:15;;;;;;;1.93;1.73;;;7.40;99.90;;;;;;5014382;28;20756;-75
2022/11/23 01:21:41;;;;;;;2.37;1.90;;;7.50;99.90;;;;;;5014015;28;20169;-75
2022/11/23 01:24:11;;;;;;;4.70;1.93;;;7.40;99.90;;;;;;5012808;28;20793;-74
2022/11/23 01:26:37;;;;;;;3.73;2.00;;;7.40;99.90;;;;;;5014272;28;20402;-74
2022/11/23 01:29:03;;;;;;;5.23;2.30;;;7.40;99.90;;;;;;5014343;28;20502;-74
2022/11/23 01:31:29;;;;;;;2.40;1.80;;;7.50;99.90;;;;;;5014100;28;20452;-74
2022/11/23 01:33:57;;;;;;;2.80;1.70;;;7.50;99.90;;;;;;5013705;28;20211;-74
2022/11/23 01:36:25;;;;;;;4.50;2.27;;;7.40;99.90;;;;;;4999079;28;20204;-74
2022/11/23 01:38:51;;;;;;;6.53;2.10;;;7.30;99.90;;;;;;4994140;28;20536;-74
2022/11/23 01:41:20;;;;;;;4.93;2.20;;;7.30;99.90;;;;;;4994437;28;20810;-73
2022/11/23 01:43:46;;;;;;;3.87;1.83;;;7.30;99.90;;;;;;4994715;28;20430;-73
2022/11/23 01:46:12;;;;;;;2.40;1.57;;;7.40;99.90;;;;;;4994133;28;20443;-73
2022/11/23 01:48:43;;;;;;;4.83;1.80;;;7.30;99.90;;;;;;5006330;28;20176;-73
2022/11/23 01:51:15;;;;;;;4.40;1.70;;;7.40;99.90;;;;;;5013047;28;20211;-73
2022/11/23 01:53:43;;;;;;;4.00;1.93;;;7.30;99.90;;;;;;5012538;28;20438;-72
2022/11/23 01:56:15;;;;;;;4.80;1.97;;;7.30;99.90;;;;;;5013492;28;20524;-74
2022/11/23 01:58:46;;;;;;;3.93;2.50;;;7.30;99.90;;;;;;5014113;28;20387;-73
2022/11/23 02:01:12;;;;;;;3.00;1.87;;;7.20;99.90;;;;;;5013606;28;20380;-73
2022/11/23 02:03:41;;;;;;;5.10;1.87;;;7.20;99.90;;;;;;5012152;28;20784;-74
2022/11/23 02:06:12;;;;;;;3.10;1.60;;;7.20;99.90;;;;;;5013244;28;20516;-74
2022/11/23 02:08:38;;;;;;;4.57;2.40;;;7.20;99.90;;;;;;5012794;28;20457;-74
2022/11/23 02:11:03;;;;;;;5.30;2.10;;;7.20;99.90;;;;;;5013533;28;20412;-74
2022/11/23 02:13:29;;;;;;;5.73;2.43;;;7.20;99.90;;;;;;5013504;28;20200;-74
2022/11/23 02:15:57;;;;;;;5.60;2.60;;;7.30;99.90;;;;;;5013273;28;20699;-77
2022/11/23 02:18:25;;;;;;;3.00;1.67;;;7.30;99.90;;;;;;5012211;28;20673;-74
2022/11/23 02:20:52;;;;;;;4.90;1.80;;;7.30;99.90;;;;;;5013880;28;20942;-74
2022/11/23 02:23:48;;;;;;;2.33;1.60;;;7.20;99.90;;;;;;5013001;28;20424;-74
2022/11/23 02:26:26;;;;;;;3.87;1.77;;;7.20;99.90;;;;;;5012088;28;20899;-73
2022/11/23 02:29:04;;;;;;;5.47;2.20;;;7.20;99.90;;;;;;5013600;28;20446;-75
2022/11/23 02:34:05;;;;;;;3.97;1.90;;;7.20;99.90;;;;;;5254150;23;20471;-74
2022/11/23 02:36:48;;;;;;;5.70;2.10;;;7.30;99.90;;;;;;5013323;28;20474;-74
2022/11/23 02:39:26;;;;;;;4.50;1.90;;;7.30;99.90;;;;;;5013312;28;20163;-74
2022/11/23 02:41:52;;;;;;;4.97;1.80;;;7.20;99.90;;;;;;5013624;28;20798;-75
2022/11/23 02:45:13;;;;;;;2.83;1.87;;;7.10;99.90;;;;;;4996431;28;20420;-74
2022/11/23 02:47:38;;;;;;;1.83;1.73;;;7.20;99.90;;;;;;4929964;28;20435;-74
2022/11/23 02:50:04;;;;;;;5.87;2.03;;;7.10;99.90;;;;;;4974194;28;20492;-74
2022/11/23 02:52:30;;;;;;;2.90;1.70;;;7.00;99.90;;;;;;4983133;28;20189;-74
2022/11/23 02:54:56;;;;;;;6.97;2.13;;;6.90;99.90;;;;;;4993243;28;20419;-74
2022/11/23 02:57:21;;;;;;;4.07;2.37;;;6.90;99.90;;;;;;4975762;28;20251;-74
2022/11/23 02:59:47;;;;;;;3.50;2.10;;;6.90;99.90;;;;;;4993694;28;20396;-74
2022/11/23 03:02:13;;;;;;;7.73;2.50;;;6.90;99.90;;;;;;4993362;28;20169;-75
2022/11/23 03:04:38;;;;;;;2.47;2.07;;;6.80;99.90;;;;;;4993805;28;20207;-74
2022/11/23 03:07:04;;;;;;;6.57;2.00;;;6.80;99.90;;;;;;4993262;28;20527;-74
2022/11/23 03:09:29;;;;;;;3.47;1.67;;;6.70;99.90;;;;;;4993845;28;20300;-74
2022/11/23 03:11:55;;;;;;;4.93;2.00;;;6.80;99.90;;;;;;4993412;28;20663;-72
2022/11/23 03:14:20;;;;;;;4.53;1.50;;;6.80;99.90;;;;;;4994472;28;20184;-74
2022/11/23 03:16:46;;;;;;;4.87;1.83;;;6.80;99.90;;;;;;4996866;28;20702;-74
2022/11/23 03:19:12;;;;;;;3.00;2.27;;;6.80;99.90;;;;;;4996928;28;20641;-74
2022/11/23 03:21:37;;;;;;;2.63;1.60;;;6.80;99.90;;;;;;4996767;28;20174;-74
2022/11/23 03:24:03;;;;;;;4.50;2.10;;;6.80;99.90;;;;;;4996245;28;20196;-74
2022/11/23 03:26:28;;;;;;;5.07;2.40;;;6.90;99.90;;;;;;4997287;28;20172;-74
2022/11/23 03:28:55;;;;;;;4.30;2.10;;;6.80;99.90;;;;;;4996849;28;20212;-74
2022/11/23 03:31:20;;;;;;;5.60;2.77;;;6.80;99.90;;;;;;4996614;28;20447;-73
2022/11/23 03:33:46;;;;;;;2.33;1.60;;;6.90;99.90;;;;;;4996594;28;20657;-74
2022/11/23 03:36:11;;;;;;;3.80;1.73;;;6.90;99.90;;;;;;4996628;28;20204;-74
2022/11/23 03:38:37;;;;;;;3.37;2.30;;;6.80;99.90;;;;;;4996374;28;20624;-74
2022/11/23 03:41:03;;;;;;;2.50;1.70;;;6.80;99.90;;;;;;4996449;28;20204;-74
2022/11/23 03:43:28;;;;;;;5.47;2.70;;;6.70;99.90;;;;;;4996512;28;20185;-74
2022/11/23 03:45:54;;;;;;;3.50;2.23;;;6.70;99.90;;;;;;4996646;28;20187;-74
2022/11/23 03:48:19;;;;;;;8.53;2.60;;;6.70;99.90;;;;;;4996642;28;20165;-74
2022/11/23 03:50:45;;;;;;;6.63;2.40;;;6.60;99.90;;;;;;4996211;28;20208;-74
2022/11/23 03:53:11;;;;;;;4.50;2.70;;;6.50;99.90;;;;;;4977412;28;20291;-74
2022/11/23 03:55:37;;;;;;;3.60;1.90;;;6.60;99.90;;;;;;4996110;28;20279;-74
2022/11/23 03:58:03;;;;;;;6.60;2.07;;;6.60;99.90;;;;;;4996725;28;20866;-73
2022/11/23 04:00:29;;;;;;;6.33;2.03;;;6.70;99.90;;;;;;4996381;28;20176;-73
2022/11/23 04:02:55;;;;;;;4.30;1.87;;;6.80;99.90;;;;;;4995961;28;20799;-74
2022/11/23 04:05:21;;;;;;;3.63;1.93;;;6.90;99.90;;;;;;4996005;28;20410;-74
2022/11/23 04:07:48;;;;;;;1.73;1.50;;;7.00;99.90;;;;;;4995674;28;20407;-73
2022/11/23 04:10:18;;;;;;;4.63;2.17;;;6.90;99.90;;;;;;4995944;28;20447;-74
2022/11/23 04:12:44;;;;;;;3.17;2.00;;;7.00;99.90;;;;;;4978438;28;20460;-73
2022/11/23 04:15:10;;;;;;;2.90;1.90;;;7.10;99.90;;;;;;4996034;28;20407;-73
2022/11/23 04:17:36;;;;;;;6.33;1.77;;;7.20;99.90;;;;;;4998310;28;20286;-73
2022/11/23 04:20:03;;;;;;;5.90;2.07;;;7.20;99.90;;;;;;4994830;28;20470;-74
2022/11/23 04:22:28;;;;;;;4.57;1.80;;;7.40;99.90;;;;;;4996194;28;20454;-74
2022/11/23 04:24:54;;;;;;;3.27;1.87;;;7.40;99.90;;;;;;4995381;28;20949;-74
2022/11/23 04:27:20;;;;;;;2.90;1.40;;;7.30;99.90;;;;;;4995833;28;20536;-75
2022/11/23 04:29:45;;;;;;;4.33;1.90;;;7.40;99.90;;;;;;4995622;28;20381;-75
2022/11/23 04:32:11;;;;;;;2.80;1.90;;;7.20;99.90;;;;;;4996241;28;20183;-74
2022/11/23 04:34:36;;;;;;;2.60;1.90;;;7.20;99.90;;;;;;4995492;28;20189;-75
2022/11/23 04:37:02;;;;;;;3.83;1.90;;;7.20;99.90;;;;;;4995327;28;20571;-75
2022/11/23 04:39:28;;;;;;;3.23;1.93;;;7.20;99.90;;;;;;4995526;28;20166;-74
2022/11/23 04:41:53;;;;;;;3.33;1.80;;;7.20;99.90;;;;;;4995408;28;20173;-72
2022/11/23 04:44:20;;;;;;;3.83;2.17;;;7.10;99.90;;;;;;4995836;28;20184;-73
2022/11/23 04:46:46;;;;;;;3.03;1.70;;;7.00;99.90;;;;;;4995163;28;20540;-73
2022/11/23 04:49:11;;;;;;;2.97;1.70;;;7.00;99.90;;;;;;4994896;28;20412;-73
2022/11/23 04:51:37;;;;;;;2.07;1.83;;;7.00;99.90;;;;;;4994718;28;20423;-73
2022/11/23 04:54:03;;;;;;;3.37;1.90;;;7.00;99.90;;;;;;4994191;28;20746;-74
2022/11/23 04:56:28;;;;;;;4.17;1.90;;;6.90;99.90;;;;;;4995614;28;20722;-73
2022/11/23 04:58:54;;;;;;;4.70;2.00;;;6.80;99.90;;;;;;4995337;28;20168;-74
2022/11/23 05:01:19;;;;;;;4.03;1.57;;;6.90;99.90;;;;;;4995155;28;20563;-74
2022/11/23 05:03:45;;;;;;;3.83;2.33;;;6.90;99.90;;;;;;4995256;28;20188;-73
2022/11/23 05:06:10;;;;;;;7.70;1.63;;;6.80;99.90;;;;;;4995167;28;20200;-74
2022/11/23 05:08:36;;;;;;;5.03;1.83;;;6.90;99.90;;;;;;4994668;28;20601;-74
2022/11/23 05:11:02;;;;;;;5.63;1.77;;;6.80;99.90;;;;;;4995702;28;20180;-74
2022/11/23 05:13:27;;;;;;;5.30;1.70;;;6.80;99.90;;;;;;4994805;28;20184;-73
2022/11/23 05:15:53;;;;;;;4.30;2.30;;;6.90;99.90;;;;;;4995109;28;20197;-73
2022/11/23 05:18:18;;;;;;;3.63;1.60;;;6.80;99.90;;;;;;4994805;28;20164;-73
2022/11/23 05:20:45;;;;;;;4.13;1.60;;;6.90;99.90;;;;;;4977385;28;20589;-74
2022/11/23 05:23:10;;;;;;;5.07;2.07;;;6.90;99.90;;;;;;4994128;28;20226;-74
2022/11/23 05:25:36;;;;;;;3.07;1.23;;;7.00;99.90;;;;;;4994564;28;20968;-74
2022/11/23 05:28:02;;;;;;;5.20;2.10;;;7.00;99.90;;;;;;4993752;28;20600;-74
2022/11/23 05:30:36;;;;;;;3.97;1.70;;;7.00;99.90;;;;;;4977006;28;20264;-74
2022/11/23 05:33:02;;;;;;;2.80;2.00;;;7.20;99.90;;;;;;4995273;28;20200;-75
2022/11/23 05:35:29;;;;;;;2.30;1.63;;;7.30;99.90;;;;;;4994184;28;20468;-74
2022/11/23 05:37:55;;;;;;;2.53;1.70;;;7.30;99.90;;;;;;4993452;28;20435;-74
2022/11/23 05:40:21;;;;;;;1.60;1.03;;;7.40;99.90;;;;;;4994323;28;21025;-75
2022/11/23 05:42:46;;;;;;;6.00;1.90;;;7.40;99.90;;;;;;4995083;28;20428;-76
2022/11/23 05:45:12;;;;;;;4.03;1.70;;;7.50;99.90;;;;;;4976902;28;20239;-75
2022/11/23 05:47:38;;;;;;;3.07;1.87;;;7.40;99.90;;;;;;4994814;28;20316;-74
2022/11/23 05:50:04;;;;;;;4.50;1.80;;;7.30;99.90;;;;;;4994528;28;20168;-72
2022/11/23 05:52:29;;;;;;;6.47;3.57;;;7.40;99.90;;;;;;4993156;28;20212;-74
2022/11/23 05:54:55;;;;;;;7.60;2.80;;;7.50;99.90;;;;;;4994173;28;20392;-74
2022/11/23 05:57:21;;;;;;;4.17;2.60;;;7.40;99.90;;;;;;4994644;28;20657;-73
2022/11/23 05:59:47;;;;;;;13.27;11.20;;;7.40;99.90;;;;;;4993924;28;20167;-74
2022/11/23 06:02:13;;;;;;;128.73;88.43;;;7.50;99.90;;;;;;4994025;28;20746;-74
2022/11/23 06:04:38;;;;;;;29.57;19.40;;;7.60;99.90;;;;;;4995473;28;20414;-73
2022/11/23 06:07:04;;;;;;;9.93;5.50;;;7.70;99.90;;;;;;4994101;28;20180;-73
2022/11/23 06:09:29;;;;;;;4.63;3.00;;;7.80;99.90;;;;;;4994175;28;20175;-74
2022/11/23 06:11:55;;;;;;;5.07;2.90;;;7.80;99.90;;;;;;4994527;28;20175;-72
2022/11/23 06:14:21;;;;;;;3.27;2.20;;;7.90;99.90;;;;;;4994346;28;20197;-74
2022/11/23 06:16:47;;;;;;;8.60;5.43;;;7.80;99.90;;;;;;4996539;28;20204;-74
2022/11/23 06:19:12;;;;;;;2.80;2.00;;;7.70;99.90;;;;;;4994108;28;20404;-74
2022/11/23 06:21:38;;;;;;;4.93;2.20;;;7.70;99.90;;;;;;4993775;28;20164;-74
2022/11/23 06:24:04;;;;;;;2.50;1.60;;;7.70;99.90;;;;;;4993428;28;20208;-73
2022/11/23 06:26:30;;;;;;;5.70;2.13;;;7.60;99.90;;;;;;4993891;28;20269;-73
2022/11/23 06:28:56;;;;;;;3.93;2.10;;;7.60;99.90;;;;;;4993859;28;20902;-73
2022/11/23 06:31:22;;;;;;;5.80;1.67;;;7.70;99.90;;;;;;4993634;28;20220;-71
2022/11/23 06:33:47;;;;;;;8.17;2.10;;;7.50;99.90;;;;;;4993329;28;20467;-70
2022/11/23 06:36:14;;;;;;;2.90;1.77;;;7.60;99.90;;;;;;4993252;28;20291;-71
2022/11/23 06:38:39;;;;;;;3.13;1.47;;;7.70;99.90;;;;;;4975315;28;20316;-72
2022/11/23 06:41:05;;;;;;;3.90;2.00;;;7.60;99.90;;;;;;4993263;28;20495;-72
2022/11/23 06:43:31;;;;;;;4.47;2.57;;;7.50;99.90;;;;;;4993585;28;20194;-71
2022/11/23 06:45:56;;;;;;;7.27;2.10;;;7.50;99.90;;;;;;4993313;28;20179;-71
2022/11/23 06:48:23;;;;;;;4.70;2.27;;;7.50;99.90;;;;;;4994795;28;20182;-71
2022/11/23 06:50:48;;;;;;;8.87;3.60;;;7.50;99.90;;;;;;4997236;28;20172;-72
2022/11/23 06:53:14;;;;;;;7.80;2.87;;;7.50;99.90;;;;;;4995989;28;20933;-71
2022/11/23 06:55:41;;;;;;;4.27;2.50;;;7.50;99.90;;;;;;4999176;28;20200;-72
2022/11/23 06:58:07;;;;;;;6.43;3.00;;;7.50;99.90;;;;;;4997122;28;20188;-73
2022/11/23 07:00:33;;;;;;;8.37;4.23;;;7.40;99.90;;;;;;4997897;28;20788;-72
2022/11/23 07:02:59;;;;;;;5.20;2.27;;;7.40;99.90;;;;;;4998242;28;20803;-72
2022/11/23 07:05:26;;;;;;;6.50;2.27;;;7.30;99.90;;;;;;4998675;28;20403;-71
2022/11/23 07:07:52;;;;;;;4.47;2.40;;;7.30;99.90;;;;;;4997277;28;20779;-72
2022/11/23 07:10:18;;;;;;;5.90;1.83;;;7.20;99.90;;;;;;4997449;28;20427;-71
2022/11/23 07:12:44;;;;;;;3.90;2.27;;;7.00;99.90;;;;;;4979558;28;20436;-71
2022/11/23 07:15:10;;;;;;;4.23;1.67;;;7.10;99.90;;;;;;4996906;28;20887;-70
2022/11/23 07:17:40;;;;;;;6.23;2.00;;;7.00;99.90;;;;;;4997756;28;20165;-71
2022/11/23 07:20:10;;;;;;;5.37;2.10;;;7.10;99.90;;;;;;4980089;28;20431;-71
2022/11/23 07:22:36;;;;;;;7.00;2.20;;;7.10;99.90;;;;;;4996454;28;20529;-70
2022/11/23 07:25:03;;;;;;;7.40;2.20;;;7.00;99.90;;;;;;4999765;28;20492;-72
2022/11/23 07:27:29;;;;;;;5.00;2.13;;;7.10;99.90;;;;;;4998130;28;20416;-72
2022/11/23 07:29:54;;;;;;;5.57;2.47;;;7.10;99.90;;;;;;4997828;28;20906;-71
2022/11/23 07:32:20;;;;;;;4.00;1.80;;;7.00;99.90;;;;;;4997108;28;20177;-73
2022/11/23 07:34:46;;;;;;;3.37;2.50;;;6.90;99.90;;;;;;4996989;28;20652;-73
2022/11/23 07:37:11;;;;;;;4.50;2.63;;;7.00;99.90;;;;;;4997752;28;20271;-72
2022/11/23 07:39:37;;;;;;;4.80;2.57;;;7.00;99.90;;;;;;4997545;28;20180;-72
2022/11/23 07:42:02;;;;;;;4.77;2.90;;;7.10;99.90;;;;;;4998287;28;20208;-72
2022/11/23 07:44:28;;;;;;;6.03;2.60;;;7.20;99.90;;;;;;4997522;28;20193;-73
2022/11/23 07:46:54;;;;;;;4.27;2.03;;;7.20;99.90;;;;;;5010291;28;20180;-72
2022/11/23 07:49:19;;;;;;;4.33;2.30;;;7.10;99.90;;;;;;5009271;28;20170;-72
2022/11/23 07:51:45;;;;;;;4.80;2.33;;;7.00;99.90;;;;;;5010914;28;20192;-72
2022/11/23 07:54:10;;;;;;;7.80;1.97;;;7.00;99.90;;;;;;4996368;28;20215;-72
2022/11/23 07:56:36;;;;;;;4.63;2.00;;;7.00;99.90;;;;;;5015642;28;20260;-73
2022/11/23 07:59:02;;;;;;;3.23;2.10;;;7.10;99.90;;;;;;5016183;28;20234;-74
2022/11/23 08:01:27;;;;;;;3.17;1.83;;;7.10;99.90;;;;;;5009755;28;20205;-73
2022/11/23 08:03:53;;;;;;;5.63;2.77;;;7.20;99.90;;;;;;5007617;28;20232;-73
2022/11/23 08:06:18;;;;;;;5.17;2.80;;;7.20;99.90;;;;;;5009375;28;20176;-73
2022/11/23 08:08:44;;;;;;;10.93;2.47;;;7.30;99.90;;;;;;5003190;28;20209;-72
2022/11/23 08:11:13;;;;;;;4.83;2.80;;;7.30;99.90;;;;;;4997390;28;20176;-73
2022/11/23 08:13:39;;;;;;;8.17;2.70;;;7.30;99.90;;;;;;4996382;28;20204;-71
2022/11/23 08:16:05;;;;;;;3.67;2.20;;;7.30;99.90;;;;;;4996743;28;20447;-73
2022/11/23 08:18:31;;;;;;;5.67;2.50;;;7.30;99.90;;;;;;4996425;28;20396;-72
2022/11/23 08:20:59;;;;;;;6.23;2.17;;;7.30;99.90;;;;;;4995127;28;20563;-73
2022/11/23 08:23:25;;;;;;;5.67;2.10;;;7.30;99.90;;;;;;4996805;28;20209;-72
2022/11/23 08:25:51;;;;;;;3.33;2.53;;;7.30;99.90;;;;;;4995506;28;20450;-73
2022/11/23 08:28:16;;;;;;;4.63;1.80;;;7.30;99.90;;;;;;4995775;28;20548;-72
2022/11/23 08:30:42;;;;;;;3.90;2.30;;;7.20;99.90;;;;;;4995968;28;20252;-73
2022/11/23 08:33:08;;;;;;;8.83;2.37;;;7.30;99.90;;;;;;4996450;28;20673;-71
2022/11/23 08:35:36;;;;;;;6.07;2.13;;;7.40;99.90;;;;;;4995833;28;20491;-70
2022/11/23 08:38:02;;;;;;;8.43;2.40;;;7.40;99.90;;;;;;4996190;28;20412;-71
2022/11/23 08:40:27;;;;;;;4.97;2.70;;;7.50;99.90;;;;;;4996071;28;20408;-71
2022/11/23 08:42:53;;;;;;;3.83;2.30;;;7.50;99.90;;;;;;4995934;28;20490;-72
2022/11/23 08:45:20;;;;;;;4.33;1.93;;;7.50;99.90;;;;;;4995767;28;20170;-72
2022/11/23 08:47:45;;;;;;;6.13;2.77;;;7.60;99.90;;;;;;4995893;28;20439;-71
2022/11/23 08:50:11;;;;;;;5.70;2.77;;;7.80;99.90;;;;;;4995820;28;20765;-71
2022/11/23 08:52:37;;;;;;;3.87;2.33;;;7.80;99.90;;;;;;4995112;28;20292;-72
2022/11/23 08:55:03;;;;;;;5.17;2.53;;;8.00;99.90;;;;;;4995683;28;20173;-72
2022/11/23 08:57:29;;;;;;;8.13;3.40;;;8.10;99.90;;;;;;4996208;28;20192;-72
2022/11/23 08:59:54;;;;;;;5.57;2.63;;;8.20;99.90;;;;;;4995223;28;20458;-72
2022/11/23 09:02:20;;;;;;;9.37;3.23;;;8.30;99.90;;;;;;4995762;28;20560;-72
2022/11/23 09:04:45;;;;;;;5.67;2.50;;;8.10;99.90;;;;;;4994921;28;20177;-72
2022/11/23 09:07:11;;;;;;;5.13;2.23;;;8.00;99.90;;;;;;4994838;28;20319;-73
2022/11/23 09:09:36;;;;;;;6.70;2.40;;;8.00;99.90;;;;;;4994932;28;20300;-74
2022/11/23 09:12:02;;;;;;;5.10;2.50;;;8.00;99.90;;;;;;4977950;28;20181;-73
2022/11/23 09:14:28;;;;;;;6.93;2.83;;;8.10;99.90;;;;;;4994666;28;20203;-73
2022/11/23 09:16:54;;;;;;;4.20;2.50;;;8.20;99.90;;;;;;4995193;28;20572;-73
2022/11/23 09:19:20;;;;;;;2.87;2.33;;;8.20;99.90;;;;;;4995825;28;20174;-74
2022/11/23 09:21:45;;;;;;;5.77;2.67;;;8.20;99.90;;;;;;4978235;28;20180;-77
2022/11/23 09:24:11;;;;;;;5.20;2.50;;;8.40;99.90;;;;;;4997050;28;20459;-76
2022/11/23 09:26:38;;;;;;;9.67;2.00;;;8.40;99.90;;;;;;4996041;28;20189;-76
2022/11/23 09:29:05;;;;;;;7.10;2.90;;;8.30;99.90;;;;;;4997463;28;20410;-77
2022/11/23 09:31:31;;;;;;;6.83;2.47;;;8.40;99.90;;;;;;4995393;28;20781;-72
2022/11/23 09:33:56;;;;;;;3.97;2.20;;;8.40;99.90;;;;;;4995386;28;20438;-76
2022/11/23 09:36:22;;;;;;;3.40;2.00;;;8.50;99.90;;;;;;4978346;28;20217;-72
2022/11/23 09:38:48;;;;;;;5.40;2.73;;;8.60;99.90;;;;;;4994566;28;20169;-72
2022/11/23 09:41:58;;;;;;;3.67;2.10;;;8.70;99.90;;;;;;4995025;28;20226;-72
2022/11/23 09:44:34;;;;;;;6.17;1.50;;;8.60;99.90;;;;;;4991334;28;20531;-73
2022/11/23 09:47:27;;;;;;;3.43;2.00;;;8.60;99.90;;;;;;4995925;28;20451;-71
2022/11/23 09:50:23;;;;;;;3.40;1.40;;;8.80;99.90;;;;;;4994801;28;20447;-72
2022/11/23 09:52:50;;;;;;;9.73;2.23;;;8.90;99.90;;;;;;4984441;28;20543;-72
2022/11/23 09:55:34;;;;;;;9.37;2.03;;;9.00;99.90;;;;;;4995192;28;20458;-72
2022/11/23 09:58:03;;;;;;;4.80;1.73;;;9.10;99.90;;;;;;4995721;28;20443;-71
2022/11/23 10:00:40;;;;;;;7.97;2.57;;;9.20;99.90;;;;;;4995351;28;20407;-72
2022/11/23 10:03:11;;;;;;;3.30;1.60;;;9.20;99.90;;;;;;4994599;28;20439;-72
2022/11/23 10:05:38;;;;;;;4.20;1.77;;;9.20;99.90;;;;;;4995281;28;20399;-72
2022/11/23 10:08:32;;;;;;;7.73;2.40;;;9.30;99.90;;;;;;4994488;28;20445;-72
2022/11/23 10:11:20;;;;;;;3.77;2.40;;;9.30;99.90;;;;;;4994952;28;20398;-71
2022/11/23 10:14:15;;;;;;;5.70;2.70;;;9.40;99.90;;;;;;4957889;28;20450;-73
2022/11/23 10:16:57;;;;;;;3.80;2.00;;;9.40;99.90;;;;;;4994090;28;20518;-71
2022/11/23 10:19:26;;;;;;;2.80;1.90;;;9.40;99.90;;;;;;4994350;28;20819;-71
2022/11/23 10:22:08;;;;;;;5.97;2.03;;;9.50;99.90;;;;;;4994677;28;20449;-72
2022/11/23 10:24:41;;;;;;;7.13;2.43;;;9.60;99.90;;;;;;4993149;28;20426;-72
2022/11/23 10:27:15;;;;;;;6.30;2.30;;;9.60;99.90;;;;;;4994567;28;20386;-72
2022/11/23 10:29:42;;;;;;;4.40;1.63;;;9.70;99.90;;;;;;4994298;28;20419;-72
2022/11/23 10:32:30;;;;;;;5.77;2.47;;;9.70;99.90;;;;;;4996628;28;20412;-71
2022/11/23 10:35:02;;;;;;;3.90;2.03;;;9.90;99.90;;;;;;4984833;28;20466;-71
2022/11/23 10:37:28;;;;;;;4.03;2.23;;;10.00;99.90;;;;;;4993313;28;20448;-71
2022/11/23 10:39:54;;;;;;;7.10;1.90;;;10.00;99.90;;;;;;4993709;28;20443;-71
2022/11/23 10:42:34;;;;;;;2.83;1.70;;;10.20;99.90;;;;;;4994437;28;20176;-71
2022/11/23 10:45:00;;;;;;;5.27;2.60;;;10.20;99.90;;;;;;4994184;28;20183;-70
2022/11/23 10:47:38;;;;;;;4.10;2.70;;;10.50;99.90;;;;;;4994160;28;20962;-72
2022/11/23 10:50:28;;;;;;;3.30;1.80;;;11.60;99.90;;;;;;4994423;28;20167;-72
2022/11/23 10:53:21;;;;;;;6.93;2.73;;;13.40;99.90;;;;;;4992482;28;20494;-71
2022/11/23 10:55:57;;;;;;;4.10;2.07;;;14.80;99.90;;;;;;4984482;28;20518;-73
2022/11/23 10:58:28;;;;;;;4.13;2.00;;;16.30;99.30;;;;;;4976067;28;20510;-71
2022/11/23 11:01:05;;;;;;;4.50;2.40;;;17.50;96.80;;;;;;4976009;28;20452;-71
2022/11/23 11:03:33;;;;;;;7.20;2.53;;;18.00;93.40;;;;;;4993794;28;20430;-72
2022/11/23 11:05:59;;;;;;;3.80;2.30;;;17.80;93.00;;;;;;4994639;28;20826;-72
2022/11/23 11:08:45;;;;;;;2.87;2.43;;;18.60;92.90;;;;;;4993615;28;20403;-72
2022/11/23 11:11:21;;;;;;;3.23;2.40;;;18.80;90.10;;;;;;4994008;28;20401;-72
2022/11/23 11:13:48;;;;;;;3.93;2.90;;;18.50;90.70;;;;;;4994624;28;20768;-72
2022/11/23 11:16:37;;;;;;;6.17;2.90;;;19.20;90.20;;;;;;4994896;28;20455;-72
2022/11/23 11:19:27;;;;;;;3.77;2.27;;;20.10;86.90;;;;;;4994119;28;20864;-73
2022/11/23 11:21:54;;;;;;;4.33;2.00;;;19.10;85.60;;;;;;4994908;28;20800;-72
2022/11/23 11:24:32;;;;;;;4.00;2.03;;;18.90;82.90;;;;;;4993455;28;20430;-71
2022/11/23 11:27:04;;;;;;;2.90;2.30;;;17.60;85.60;;;;;;4994564;28;20406;-71
2022/11/23 11:29:38;;;;;;;2.57;1.63;;;18.70;85.80;;;;;;4994659;28;20419;-71
2022/11/23 11:32:31;;;;;;;4.73;2.40;;;19.20;83.40;;;;;;4994661;28;20442;-72
2022/11/23 11:35:12;;;;;;;3.33;1.90;;;18.50;82.20;;;;;;4995329;28;20488;-73
2022/11/23 11:37:44;;;;;;;3.17;1.80;;;18.70;83.80;;;;;;4981449;28;20459;-72
2022/11/23 11:40:33;;;;;;;3.17;2.03;;;18.50;82.90;;;;;;4965189;28;20427;-71
2022/11/23 11:43:04;;;;;;;4.30;2.10;;;19.50;80.70;;;;;;4997391;28;20481;-71
2022/11/23 11:45:38;;;;;;;3.27;1.63;;;18.90;79.80;;;;;;4997753;28;20478;-71
2022/11/23 11:48:21;;;;;;;3.23;1.80;;;19.60;78.20;;;;;;4997863;28;20468;-71
2022/11/23 11:51:07;;;;;;;4.73;2.97;;;21.00;77.60;;;;;;4997451;28;20419;-71
2022/11/23 11:53:56;;;;;;;2.60;1.93;;;21.30;73.80;;;;;;4995703;28;20447;-73
2022/11/23 11:56:36;;;;;;;3.30;1.77;;;22.20;72.00;;;;;;4998250;28;20440;-72
2022/11/23 11:59:13;;;;;;;2.80;1.90;;;22.20;70.30;;;;;;4979997;28;20419;-73
2022/11/23 12:01:46;;;;;;;3.83;2.47;;;22.30;66.30;;;;;;4997344;28;20478;-72
2022/11/23 12:04:24;;;;;;;4.03;2.53;;;21.10;69.00;;;;;;4996631;28;20513;-73
2022/11/23 12:07:13;;;;;;;3.77;2.50;;;21.40;69.80;;;;;;4998017;28;20546;-72
2022/11/23 12:09:41;;;;;;;3.00;2.10;;;21.00;70.00;;;;;;4997053;28;20403;-73
2022/11/23 12:12:15;;;;;;;4.10;2.30;;;20.80;69.50;;;;;;4996264;28;20408;-72
2022/11/23 12:14:40;;;;;;;6.27;2.20;;;20.00;71.00;;;;;;4979528;28;20483;-74
2022/11/23 12:17:10;;;;;;;3.40;2.03;;;20.50;69.00;;;;;;4996652;28;20408;-73
2022/11/23 12:19:43;;;;;;;2.47;1.57;;;21.00;68.00;;;;;;4997726;28;20231;-74
2022/11/23 12:22:47;;;;;;;2.93;1.50;;;20.80;67.30;;;;;;4996415;28;20518;-74
2022/11/23 12:25:35;;;;;;;2.53;1.60;;;20.20;66.00;;;;;;4996948;28;20447;-74
2022/11/23 12:28:10;;;;;;;1.40;1.20;;;18.10;71.50;;;;;;4978798;28;20791;-73
2022/11/23 12:31:01;;;;;;;1.83;1.50;;;16.00;74.80;;;;;;4996889;28;20380;-73
2022/11/23 12:33:51;;;;;;;2.07;1.67;;;14.50;79.70;;;;;;4996555;28;20427;-74
2022/11/23 12:36:22;;;;;;;3.73;1.50;;;13.60;83.70;;;;;;4997763;28;20938;-74
2022/11/23 12:38:57;;;;;;;2.40;1.60;;;13.10;86.60;;;;;;4995902;28;20416;-74
2022/11/23 12:41:33;;;;;;;2.37;1.17;;;12.90;89.60;;;;;;4995734;28;20409;-74
2022/11/23 12:44:31;;;;;;;1.53;1.20;;;12.20;90.70;;;;;;4995294;28;20816;-73
2022/11/23 12:47:24;;;;;;;4.07;1.40;;;12.20;91.50;;;;;;4995771;28;20443;-74
2022/11/23 12:49:57;;;;;;;1.27;0.93;;;11.90;92.20;;;;;;4978378;28;20404;-72
2022/11/23 12:53:01;;;;;;;1.33;1.13;;;11.70;92.70;;;;;;4994627;28;20822;-73
2022/11/23 12:56:09;;;;;;;1.77;0.97;;;11.80;93.60;;;;;;4996137;28;20405;-73
2022/11/23 12:58:38;;;;;;;3.73;1.70;;;11.70;94.40;;;;;;4959363;28;20431;-75
2022/11/23 13:01:30;;;;;;;1.70;1.33;;;11.60;94.70;;;;;;4996277;28;20408;-75
2022/11/23 13:03:55;;;;;;;4.43;1.53;;;11.60;95.20;;;;;;4978118;28;20449;-74
2022/11/23 13:06:30;;;;;;;2.20;1.80;;;11.40;95.40;;;;;;4995399;28;20798;-74
2022/11/23 13:09:38;;;;;;;6.33;1.23;;;11.20;96.10;;;;;;4977664;28;20164;-74
2022/11/23 13:12:09;;;;;;;1.80;1.20;;;11.00;97.20;;;;;;4985814;28;20443;-75